Chanhassen, Minnesota
Current Conditions -  °F | °C
As of 5:53 PM on Sunday 23 Nov 2014 (Local Time) from KFCM Reporting Station
Overcast Overcast  
Wind Chill: 32°   Ceiling: 4300
Heat Index: 39°   Visibility: 10mi
Dew Point: 36°   Wind: 10mph
Humidity: 89%   Direction: 300°WNW
Pressure: 29.4"   Gusts: NA
Location:  44.86°N, 93.54°W
Report Text: KFCM 232353Z 30009KT 10SM OVC043 04/02 A2940 RMK AO2 SLP958 T00390022 10094 20039 53004
Loading
Personal Weather Stations






























Interactive Weather Map New forecast layout! Learn more

10-Day Weather Forecast

Advertisements
Track Severe Weather on mobile